sensor_id;sensor_type;location;lat;lon;timestamp;P1;durP1;ratioP1;P2;durP2;ratioP2
12059;SDS011;6091;51.432;6.880;2022-10-16T00:01:39;0.80;;;0.80;;
12059;SDS011;6091;51.432;6.880;2022-10-16T00:04:06;0.77;;;0.77;;
12059;SDS011;6091;51.432;6.880;2022-10-16T00:06:34;0.80;;;0.80;;
12059;SDS011;6091;51.432;6.880;2022-10-16T00:09:01;0.70;;;0.70;;
12059;SDS011;6091;51.432;6.880;2022-10-16T00:11:30;0.88;;;0.88;;
12059;SDS011;6091;51.432;6.880;2022-10-16T00:14:03;0.70;;;0.70;;
12059;SDS011;6091;51.432;6.880;2022-10-16T00:16:36;0.80;;;0.80;;
12059;SDS011;6091;51.432;6.880;2022-10-16T00:19:04;0.70;;;0.70;;
12059;SDS011;6091;51.432;6.880;2022-10-16T00:21:31;0.80;;;0.80;;
12059;SDS011;6091;51.432;6.880;2022-10-16T00:24:01;1.05;;;0.95;;
12059;SDS011;6091;51.432;6.880;2022-10-16T00:26:32;0.70;;;0.70;;
12059;SDS011;6091;51.432;6.880;2022-10-16T00:29:01;0.82;;;0.82;;
12059;SDS011;6091;51.432;6.880;2022-10-16T00:31:29;0.65;;;0.65;;
12059;SDS011;6091;51.432;6.880;2022-10-16T00:33:56;1.00;;;0.90;;
12059;SDS011;6091;51.432;6.880;2022-10-16T00:36:24;0.90;;;0.90;;
12059;SDS011;6091;51.432;6.880;2022-10-16T00:38:53;0.70;;;0.70;;
12059;SDS011;6091;51.432;6.880;2022-10-16T00:41:23;0.73;;;0.73;;
12059;SDS011;6091;51.432;6.880;2022-10-16T00:43:52;0.90;;;0.90;;
12059;SDS011;6091;51.432;6.880;2022-10-16T00:46:46;0.70;;;0.70;;
12059;SDS011;6091;51.432;6.880;2022-10-16T00:49:16;0.60;;;0.60;;
12059;SDS011;6091;51.432;6.880;2022-10-16T00:51:47;0.70;;;0.70;;
12059;SDS011;6091;51.432;6.880;2022-10-16T00:54:20;0.93;;;0.90;;
12059;SDS011;6091;51.432;6.880;2022-10-16T00:56:50;1.23;;;1.00;;
12059;SDS011;6091;51.432;6.880;2022-10-16T00:59:24;0.85;;;0.85;;
12059;SDS011;6091;51.432;6.880;2022-10-16T01:01:55;0.90;;;0.90;;
12059;SDS011;6091;51.432;6.880;2022-10-16T01:04:23;1.45;;;0.68;;
12059;SDS011;6091;51.432;6.880;2022-10-16T01:10:12;0.90;;;0.90;;
12059;SDS011;6091;51.432;6.880;2022-10-16T01:12:52;0.70;;;0.70;;
12059;SDS011;6091;51.432;6.880;2022-10-16T01:29:52;0.80;;;0.80;;
12059;SDS011;6091;51.432;6.880;2022-10-16T01:32:43;1.00;;;0.80;;
12059;SDS011;6091;51.432;6.880;2022-10-16T01:35:36;0.80;;;0.80;;
12059;SDS011;6091;51.432;6.880;2022-10-16T01:38:19;0.80;;;0.80;;
12059;SDS011;6091;51.432;6.880;2022-10-16T01:41:08;1.48;;;0.63;;
12059;SDS011;6091;51.432;6.880;2022-10-16T01:43:58;0.70;;;0.70;;
12059;SDS011;6091;51.432;6.880;2022-10-16T01:46:31;0.63;;;0.63;;
12059;SDS011;6091;51.432;6.880;2022-10-16T01:49:03;0.70;;;0.70;;
12059;SDS011;6091;51.432;6.880;2022-10-16T01:51:33;0.63;;;0.63;;
12059;SDS011;6091;51.432;6.880;2022-10-16T01:54:03;0.70;;;0.70;;
12059;SDS011;6091;51.432;6.880;2022-10-16T01:56:34;0.70;;;0.70;;
12059;SDS011;6091;51.432;6.880;2022-10-16T01:59:08;0.90;;;0.70;;
12059;SDS011;6091;51.432;6.880;2022-10-16T02:01:41;0.80;;;0.80;;
12059;SDS011;6091;51.432;6.880;2022-10-16T02:06:59;0.60;;;0.60;;
12059;SDS011;6091;51.432;6.880;2022-10-16T02:09:30;0.82;;;0.80;;
12059;SDS011;6091;51.432;6.880;2022-10-16T02:12:04;0.63;;;0.63;;
12059;SDS011;6091;51.432;6.880;2022-10-16T02:14:48;0.70;;;0.70;;
12059;SDS011;6091;51.432;6.880;2022-10-16T02:17:17;0.88;;;0.88;;
12059;SDS011;6091;51.432;6.880;2022-10-16T02:19:45;0.88;;;0.88;;
12059;SDS011;6091;51.432;6.880;2022-10-16T02:22:17;0.70;;;0.70;;
12059;SDS011;6091;51.432;6.880;2022-10-16T02:25:13;0.80;;;0.80;;
12059;SDS011;6091;51.432;6.880;2022-10-16T02:27:54;0.80;;;0.80;;
12059;SDS011;6091;51.432;6.880;2022-10-16T02:33:01;0.70;;;0.70;;
12059;SDS011;6091;51.432;6.880;2022-10-16T02:35:33;0.70;;;0.70;;
12059;SDS011;6091;51.432;6.880;2022-10-16T02:38:01;0.70;;;0.70;;
12059;SDS011;6091;51.432;6.880;2022-10-16T02:40:29;0.85;;;0.60;;
12059;SDS011;6091;51.432;6.880;2022-10-16T02:42:57;0.60;;;0.60;;
12059;SDS011;6091;51.432;6.880;2022-10-16T02:45:24;1.02;;;0.80;;
12059;SDS011;6091;51.432;6.880;2022-10-16T02:47:51;1.17;;;0.85;;
12059;SDS011;6091;51.432;6.880;2022-10-16T02:50:18;0.70;;;0.70;;
12059;SDS011;6091;51.432;6.880;2022-10-16T02:52:45;0.70;;;0.70;;
12059;SDS011;6091;51.432;6.880;2022-10-16T02:55:12;0.60;;;0.60;;
12059;SDS011;6091;51.432;6.880;2022-10-16T02:57:39;0.73;;;0.60;;
12059;SDS011;6091;51.432;6.880;2022-10-16T03:00:08;0.88;;;0.75;;
12059;SDS011;6091;51.432;6.880;2022-10-16T03:02:38;0.70;;;0.70;;
12059;SDS011;6091;51.432;6.880;2022-10-16T03:05:05;0.90;;;0.73;;
12059;SDS011;6091;51.432;6.880;2022-10-16T03:07:33;0.60;;;0.60;;
12059;SDS011;6091;51.432;6.880;2022-10-16T03:10:00;0.60;;;0.60;;
12059;SDS011;6091;51.432;6.880;2022-10-16T03:12:27;0.90;;;0.90;;
12059;SDS011;6091;51.432;6.880;2022-10-16T03:14:55;0.77;;;0.77;;
12059;SDS011;6091;51.432;6.880;2022-10-16T03:17:23;0.90;;;0.90;;
12059;SDS011;6091;51.432;6.880;2022-10-16T03:19:51;0.60;;;0.60;;
12059;SDS011;6091;51.432;6.880;2022-10-16T03:22:18;0.60;;;0.60;;
12059;SDS011;6091;51.432;6.880;2022-10-16T03:24:45;0.63;;;0.63;;
12059;SDS011;6091;51.432;6.880;2022-10-16T03:27:12;0.80;;;0.80;;
12059;SDS011;6091;51.432;6.880;2022-10-16T03:29:39;0.70;;;0.70;;
12059;SDS011;6091;51.432;6.880;2022-10-16T03:32:06;0.55;;;0.55;;
12059;SDS011;6091;51.432;6.880;2022-10-16T03:34:33;0.60;;;0.60;;
12059;SDS011;6091;51.432;6.880;2022-10-16T03:36:59;0.70;;;0.70;;
12059;SDS011;6091;51.432;6.880;2022-10-16T03:39:26;0.60;;;0.60;;
12059;SDS011;6091;51.432;6.880;2022-10-16T03:41:53;0.50;;;0.50;;
12059;SDS011;6091;51.432;6.880;2022-10-16T03:44:20;0.93;;;0.75;;
12059;SDS011;6091;51.432;6.880;2022-10-16T03:46:47;0.55;;;0.55;;
12059;SDS011;6091;51.432;6.880;2022-10-16T03:49:14;0.55;;;0.55;;
12059;SDS011;6091;51.432;6.880;2022-10-16T03:51:41;0.65;;;0.65;;
12059;SDS011;6091;51.432;6.880;2022-10-16T03:54:09;0.70;;;0.70;;
12059;SDS011;6091;51.432;6.880;2022-10-16T03:56:36;0.68;;;0.68;;
12059;SDS011;6091;51.432;6.880;2022-10-16T03:59:03;0.77;;;0.70;;
12059;SDS011;6091;51.432;6.880;2022-10-16T04:01:30;0.70;;;0.70;;
12059;SDS011;6091;51.432;6.880;2022-10-16T04:03:57;0.70;;;0.63;;
12059;SDS011;6091;51.432;6.880;2022-10-16T04:06:24;0.73;;;0.70;;
12059;SDS011;6091;51.432;6.880;2022-10-16T04:08:51;0.80;;;0.80;;
12059;SDS011;6091;51.432;6.880;2022-10-16T04:11:18;0.60;;;0.60;;
12059;SDS011;6091;51.432;6.880;2022-10-16T04:13:45;0.52;;;0.52;;
12059;SDS011;6091;51.432;6.880;2022-10-16T04:16:12;0.60;;;0.60;;
12059;SDS011;6091;51.432;6.880;2022-10-16T04:18:38;0.70;;;0.70;;
12059;SDS011;6091;51.432;6.880;2022-10-16T04:21:06;0.60;;;0.60;;
12059;SDS011;6091;51.432;6.880;2022-10-16T04:23:34;0.50;;;0.50;;
12059;SDS011;6091;51.432;6.880;2022-10-16T04:26:01;0.93;;;0.70;;
12059;SDS011;6091;51.432;6.880;2022-10-16T04:28:28;0.45;;;0.45;;
12059;SDS011;6091;51.432;6.880;2022-10-16T04:30:55;0.85;;;0.73;;
12059;SDS011;6091;51.432;6.880;2022-10-16T04:33:22;0.60;;;0.60;;
12059;SDS011;6091;51.432;6.880;2022-10-16T04:35:55;0.70;;;0.63;;
12059;SDS011;6091;51.432;6.880;2022-10-16T04:38:23;0.60;;;0.60;;
12059;SDS011;6091;51.432;6.880;2022-10-16T04:40:51;0.60;;;0.60;;
12059;SDS011;6091;51.432;6.880;2022-10-16T04:43:19;0.60;;;0.60;;
12059;SDS011;6091;51.432;6.880;2022-10-16T04:45:46;0.63;;;0.63;;
12059;SDS011;6091;51.432;6.880;2022-10-16T04:48:13;0.60;;;0.60;;
12059;SDS011;6091;51.432;6.880;2022-10-16T04:50:40;0.70;;;0.70;;
12059;SDS011;6091;51.432;6.880;2022-10-16T04:53:07;0.63;;;0.63;;
12059;SDS011;6091;51.432;6.880;2022-10-16T04:55:34;0.70;;;0.70;;
12059;SDS011;6091;51.432;6.880;2022-10-16T04:58:01;0.60;;;0.60;;
12059;SDS011;6091;51.432;6.880;2022-10-16T05:00:28;0.60;;;0.60;;
12059;SDS011;6091;51.432;6.880;2022-10-16T05:02:55;0.70;;;0.70;;
12059;SDS011;6091;51.432;6.880;2022-10-16T05:05:23;0.68;;;0.68;;
12059;SDS011;6091;51.432;6.880;2022-10-16T05:07:50;0.50;;;0.50;;
12059;SDS011;6091;51.432;6.880;2022-10-16T05:10:18;0.50;;;0.50;;
12059;SDS011;6091;51.432;6.880;2022-10-16T05:12:45;0.50;;;0.50;;
12059;SDS011;6091;51.432;6.880;2022-10-16T05:15:12;0.57;;;0.57;;
12059;SDS011;6091;51.432;6.880;2022-10-16T05:17:39;0.60;;;0.60;;
12059;SDS011;6091;51.432;6.880;2022-10-16T05:20:10;0.60;;;0.60;;
12059;SDS011;6091;51.432;6.880;2022-10-16T05:22:38;0.73;;;0.73;;
12059;SDS011;6091;51.432;6.880;2022-10-16T05:25:05;0.60;;;0.60;;
12059;SDS011;6091;51.432;6.880;2022-10-16T05:27:32;1.05;;;0.50;;
12059;SDS011;6091;51.432;6.880;2022-10-16T05:29:59;0.68;;;0.68;;
12059;SDS011;6091;51.432;6.880;2022-10-16T05:32:26;0.60;;;0.60;;
12059;SDS011;6091;51.432;6.880;2022-10-16T05:34:53;0.60;;;0.60;;
12059;SDS011;6091;51.432;6.880;2022-10-16T05:37:20;0.70;;;0.70;;
12059;SDS011;6091;51.432;6.880;2022-10-16T05:39:47;0.60;;;0.60;;
12059;SDS011;6091;51.432;6.880;2022-10-16T05:42:14;0.55;;;0.55;;
12059;SDS011;6091;51.432;6.880;2022-10-16T05:44:41;0.50;;;0.50;;
12059;SDS011;6091;51.432;6.880;2022-10-16T05:47:08;0.60;;;0.60;;
12059;SDS011;6091;51.432;6.880;2022-10-16T05:49:36;0.60;;;0.60;;
12059;SDS011;6091;51.432;6.880;2022-10-16T05:52:06;0.50;;;0.50;;
12059;SDS011;6091;51.432;6.880;2022-10-16T05:54:33;0.57;;;0.57;;
12059;SDS011;6091;51.432;6.880;2022-10-16T05:57:00;0.55;;;0.55;;
12059;SDS011;6091;51.432;6.880;2022-10-16T05:59:28;0.50;;;0.50;;
12059;SDS011;6091;51.432;6.880;2022-10-16T06:01:55;0.40;;;0.40;;
12059;SDS011;6091;51.432;6.880;2022-10-16T06:04:22;0.50;;;0.50;;
12059;SDS011;6091;51.432;6.880;2022-10-16T06:06:49;0.55;;;0.50;;
12059;SDS011;6091;51.432;6.880;2022-10-16T06:09:16;0.52;;;0.52;;
12059;SDS011;6091;51.432;6.880;2022-10-16T06:11:43;0.50;;;0.50;;
12059;SDS011;6091;51.432;6.880;2022-10-16T06:14:10;0.65;;;0.65;;
12059;SDS011;6091;51.432;6.880;2022-10-16T06:16:39;0.80;;;0.70;;
12059;SDS011;6091;51.432;6.880;2022-10-16T06:19:09;0.57;;;0.57;;
12059;SDS011;6091;51.432;6.880;2022-10-16T06:21:36;0.50;;;0.50;;
12059;SDS011;6091;51.432;6.880;2022-10-16T06:24:03;0.50;;;0.50;;
12059;SDS011;6091;51.432;6.880;2022-10-16T06:26:30;0.50;;;0.50;;
12059;SDS011;6091;51.432;6.880;2022-10-16T06:28:58;0.50;;;0.50;;
12059;SDS011;6091;51.432;6.880;2022-10-16T06:31:26;0.60;;;0.60;;
12059;SDS011;6091;51.432;6.880;2022-10-16T06:33:56;0.43;;;0.43;;
12059;SDS011;6091;51.432;6.880;2022-10-16T06:36:24;0.50;;;0.50;;
12059;SDS011;6091;51.432;6.880;2022-10-16T06:38:52;0.60;;;0.60;;
12059;SDS011;6091;51.432;6.880;2022-10-16T06:41:20;0.50;;;0.50;;
12059;SDS011;6091;51.432;6.880;2022-10-16T06:43:49;0.63;;;0.63;;
12059;SDS011;6091;51.432;6.880;2022-10-16T06:46:17;0.55;;;0.55;;
12059;SDS011;6091;51.432;6.880;2022-10-16T06:48:48;0.57;;;0.57;;
12059;SDS011;6091;51.432;6.880;2022-10-16T06:51:19;0.50;;;0.50;;
12059;SDS011;6091;51.432;6.880;2022-10-16T06:53:49;0.50;;;0.50;;
12059;SDS011;6091;51.432;6.880;2022-10-16T06:56:29;0.57;;;0.57;;
12059;SDS011;6091;51.432;6.880;2022-10-16T06:58:59;0.60;;;0.60;;
12059;SDS011;6091;51.432;6.880;2022-10-16T07:01:27;0.43;;;0.43;;
12059;SDS011;6091;51.432;6.880;2022-10-16T07:03:55;0.50;;;0.50;;
12059;SDS011;6091;51.432;6.880;2022-10-16T07:06:22;0.50;;;0.50;;
12059;SDS011;6091;51.432;6.880;2022-10-16T07:08:51;0.47;;;0.40;;
12059;SDS011;6091;51.432;6.880;2022-10-16T07:11:20;0.50;;;0.50;;
12059;SDS011;6091;51.432;6.880;2022-10-16T07:13:50;0.50;;;0.50;;
12059;SDS011;6091;51.432;6.880;2022-10-16T07:16:22;0.47;;;0.47;;
12059;SDS011;6091;51.432;6.880;2022-10-16T07:18:55;0.60;;;0.60;;
12059;SDS011;6091;51.432;6.880;2022-10-16T07:21:30;0.50;;;0.50;;
12059;SDS011;6091;51.432;6.880;2022-10-16T07:24:03;0.70;;;0.70;;
12059;SDS011;6091;51.432;6.880;2022-10-16T07:26:35;0.70;;;0.70;;
12059;SDS011;6091;51.432;6.880;2022-10-16T07:29:18;0.50;;;0.50;;
12059;SDS011;6091;51.432;6.880;2022-10-16T07:31:48;0.55;;;0.55;;
12059;SDS011;6091;51.432;6.880;2022-10-16T07:34:16;0.55;;;0.55;;
12059;SDS011;6091;51.432;6.880;2022-10-16T07:36:48;0.50;;;0.50;;
12059;SDS011;6091;51.432;6.880;2022-10-16T07:39:16;0.57;;;0.50;;
12059;SDS011;6091;51.432;6.880;2022-10-16T07:41:43;0.57;;;0.57;;
12059;SDS011;6091;51.432;6.880;2022-10-16T07:44:10;0.60;;;0.60;;
12059;SDS011;6091;51.432;6.880;2022-10-16T07:46:37;0.55;;;0.55;;
12059;SDS011;6091;51.432;6.880;2022-10-16T07:49:05;0.50;;;0.47;;
12059;SDS011;6091;51.432;6.880;2022-10-16T07:51:32;0.50;;;0.50;;
12059;SDS011;6091;51.432;6.880;2022-10-16T07:53:59;0.40;;;0.40;;
12059;SDS011;6091;51.432;6.880;2022-10-16T07:56:26;0.47;;;0.47;;
12059;SDS011;6091;51.432;6.880;2022-10-16T07:58:53;0.50;;;0.50;;
12059;SDS011;6091;51.432;6.880;2022-10-16T08:01:20;0.50;;;0.50;;
12059;SDS011;6091;51.432;6.880;2022-10-16T08:03:48;0.50;;;0.50;;
12059;SDS011;6091;51.432;6.880;2022-10-16T08:06:18;1.90;;;0.60;;
12059;SDS011;6091;51.432;6.880;2022-10-16T08:08:53;0.60;;;0.60;;
12059;SDS011;6091;51.432;6.880;2022-10-16T08:11:21;0.82;;;0.68;;
12059;SDS011;6091;51.432;6.880;2022-10-16T08:13:49;1.67;;;0.90;;
12059;SDS011;6091;51.432;6.880;2022-10-16T08:16:16;2.58;;;0.70;;
12059;SDS011;6091;51.432;6.880;2022-10-16T08:18:43;0.55;;;0.50;;
12059;SDS011;6091;51.432;6.880;2022-10-16T08:21:15;1.00;;;0.73;;
12059;SDS011;6091;51.432;6.880;2022-10-16T08:23:46;1.15;;;0.70;;
12059;SDS011;6091;51.432;6.880;2022-10-16T08:26:23;2.13;;;0.70;;
12059;SDS011;6091;51.432;6.880;2022-10-16T08:28:50;1.17;;;0.70;;
12059;SDS011;6091;51.432;6.880;2022-10-16T08:31:18;0.82;;;0.80;;
12059;SDS011;6091;51.432;6.880;2022-10-16T08:33:46;0.93;;;0.60;;
12059;SDS011;6091;51.432;6.880;2022-10-16T08:36:13;1.15;;;0.60;;
12059;SDS011;6091;51.432;6.880;2022-10-16T08:38:42;1.45;;;0.80;;
12059;SDS011;6091;51.432;6.880;2022-10-16T08:43:43;0.70;;;0.55;;
12059;SDS011;6091;51.432;6.880;2022-10-16T08:49:58;1.23;;;0.63;;
12059;SDS011;6091;51.432;6.880;2022-10-16T08:52:35;1.33;;;0.70;;
12059;SDS011;6091;51.432;6.880;2022-10-16T08:55:17;1.58;;;0.80;;
12059;SDS011;6091;51.432;6.880;2022-10-16T08:57:56;1.15;;;0.70;;
12059;SDS011;6091;51.432;6.880;2022-10-16T09:00:24;0.98;;;0.88;;
12059;SDS011;6091;51.432;6.880;2022-10-16T09:02:58;0.80;;;0.65;;
12059;SDS011;6091;51.432;6.880;2022-10-16T09:12:03;0.93;;;0.70;;
12059;SDS011;6091;51.432;6.880;2022-10-16T09:21:06;1.65;;;0.70;;
12059;SDS011;6091;51.432;6.880;2022-10-16T09:23:46;1.70;;;0.68;;
12059;SDS011;6091;51.432;6.880;2022-10-16T09:26:14;0.70;;;0.70;;
12059;SDS011;6091;51.432;6.880;2022-10-16T09:28:44;0.73;;;0.73;;
12059;SDS011;6091;51.432;6.880;2022-10-16T09:31:18;0.60;;;0.60;;
12059;SDS011;6091;51.432;6.880;2022-10-16T09:33:55;0.65;;;0.65;;
12059;SDS011;6091;51.432;6.880;2022-10-16T09:36:26;0.50;;;0.50;;
12059;SDS011;6091;51.432;6.880;2022-10-16T09:39:05;0.50;;;0.50;;
12059;SDS011;6091;51.432;6.880;2022-10-16T09:41:36;0.63;;;0.63;;
12059;SDS011;6091;51.432;6.880;2022-10-16T09:44:41;0.60;;;0.60;;
12059;SDS011;6091;51.432;6.880;2022-10-16T09:47:13;1.38;;;0.60;;
12059;SDS011;6091;51.432;6.880;2022-10-16T09:49:56;0.50;;;0.50;;
12059;SDS011;6091;51.432;6.880;2022-10-16T09:52:32;0.63;;;0.63;;
12059;SDS011;6091;51.432;6.880;2022-10-16T09:55:01;0.60;;;0.60;;
12059;SDS011;6091;51.432;6.880;2022-10-16T09:57:52;0.70;;;0.68;;
12059;SDS011;6091;51.432;6.880;2022-10-16T10:00:21;2.05;;;0.60;;
12059;SDS011;6091;51.432;6.880;2022-10-16T10:02:50;0.75;;;0.52;;
12059;SDS011;6091;51.432;6.880;2022-10-16T10:05:26;0.55;;;0.55;;
12059;SDS011;6091;51.432;6.880;2022-10-16T10:08:04;0.55;;;0.50;;
12059;SDS011;6091;51.432;6.880;2022-10-16T10:10:40;0.95;;;0.70;;
12059;SDS011;6091;51.432;6.880;2022-10-16T10:13:19;0.52;;;0.52;;
12059;SDS011;6091;51.432;6.880;2022-10-16T10:15:48;0.50;;;0.50;;
12059;SDS011;6091;51.432;6.880;2022-10-16T10:18:21;1.65;;;0.70;;
12059;SDS011;6091;51.432;6.880;2022-10-16T10:20:59;0.60;;;0.47;;
12059;SDS011;6091;51.432;6.880;2022-10-16T10:23:29;0.60;;;0.60;;
12059;SDS011;6091;51.432;6.880;2022-10-16T10:51:51;1.55;;;0.65;;
12059;SDS011;6091;51.432;6.880;2022-10-16T10:58:08;1.45;;;0.70;;
12059;SDS011;6091;51.432;6.880;2022-10-16T11:03:51;3.08;;;1.13;;
12059;SDS011;6091;51.432;6.880;2022-10-16T11:07:39;2.17;;;1.15;;
12059;SDS011;6091;51.432;6.880;2022-10-16T11:09:52;2.30;;;1.10;;
12059;SDS011;6091;51.432;6.880;2022-10-16T11:12:35;1.40;;;0.90;;
12059;SDS011;6091;51.432;6.880;2022-10-16T11:17:50;1.90;;;1.10;;
12059;SDS011;6091;51.432;6.880;2022-10-16T11:20:40;1.88;;;1.10;;
12059;SDS011;6091;51.432;6.880;2022-10-16T11:23:59;2.05;;;1.00;;
12059;SDS011;6091;51.432;6.880;2022-10-16T11:26:32;4.25;;;0.98;;
12059;SDS011;6091;51.432;6.880;2022-10-16T11:29:07;1.58;;;1.20;;
12059;SDS011;6091;51.432;6.880;2022-10-16T11:31:57;1.70;;;1.10;;
12059;SDS011;6091;51.432;6.880;2022-10-16T11:35:00;3.35;;;0.85;;
12059;SDS011;6091;51.432;6.880;2022-10-16T11:37:42;1.67;;;0.90;;
12059;SDS011;6091;51.432;6.880;2022-10-16T11:40:19;3.03;;;0.90;;
12059;SDS011;6091;51.432;6.880;2022-10-16T11:42:59;2.22;;;1.05;;
12059;SDS011;6091;51.432;6.880;2022-10-16T11:45:41;1.45;;;1.00;;
12059;SDS011;6091;51.432;6.880;2022-10-16T11:48:24;0.98;;;0.88;;
12059;SDS011;6091;51.432;6.880;2022-10-16T11:51:30;3.17;;;1.15;;
12059;SDS011;6091;51.432;6.880;2022-10-16T11:54:33;1.10;;;0.82;;
12059;SDS011;6091;51.432;6.880;2022-10-16T11:57:12;5.57;;;1.30;;
12059;SDS011;6091;51.432;6.880;2022-10-16T12:02:54;2.33;;;0.90;;
12059;SDS011;6091;51.432;6.880;2022-10-16T12:08:27;2.67;;;1.05;;
12059;SDS011;6091;51.432;6.880;2022-10-16T12:11:05;1.90;;;0.90;;
12059;SDS011;6091;51.432;6.880;2022-10-16T12:13:37;1.73;;;1.10;;
12059;SDS011;6091;51.432;6.880;2022-10-16T12:16:07;3.00;;;1.05;;
12059;SDS011;6091;51.432;6.880;2022-10-16T12:18:48;2.00;;;0.90;;
12059;SDS011;6091;51.432;6.880;2022-10-16T12:21:29;4.13;;;1.27;;
12059;SDS011;6091;51.432;6.880;2022-10-16T12:23:58;2.38;;;1.13;;
12059;SDS011;6091;51.432;6.880;2022-10-16T12:26:33;3.42;;;1.05;;
12059;SDS011;6091;51.432;6.880;2022-10-16T12:29:11;2.35;;;0.98;;
12059;SDS011;6091;51.432;6.880;2022-10-16T12:31:49;2.38;;;1.00;;
12059;SDS011;6091;51.432;6.880;2022-10-16T12:34:25;3.17;;;1.00;;
12059;SDS011;6091;51.432;6.880;2022-10-16T12:37:39;1.27;;;1.00;;
12059;SDS011;6091;51.432;6.880;2022-10-16T12:40:11;3.72;;;1.10;;
12059;SDS011;6091;51.432;6.880;2022-10-16T12:42:52;2.28;;;1.20;;
12059;SDS011;6091;51.432;6.880;2022-10-16T12:45:30;2.10;;;1.00;;
12059;SDS011;6091;51.432;6.880;2022-10-16T12:48:04;1.17;;;0.90;;
12059;SDS011;6091;51.432;6.880;2022-10-16T12:50:46;2.30;;;0.90;;
12059;SDS011;6091;51.432;6.880;2022-10-16T12:53:18;1.02;;;0.75;;
12059;SDS011;6091;51.432;6.880;2022-10-16T13:04:27;1.73;;;1.00;;
12059;SDS011;6091;51.432;6.880;2022-10-16T13:10:41;1.13;;;1.00;;
12059;SDS011;6091;51.432;6.880;2022-10-16T13:16:32;2.20;;;1.00;;
12059;SDS011;6091;51.432;6.880;2022-10-16T13:28:27;3.20;;;0.90;;
12059;SDS011;6091;51.432;6.880;2022-10-16T13:30:59;2.10;;;1.10;;
12059;SDS011;6091;51.432;6.880;2022-10-16T13:33:40;1.77;;;0.90;;
12059;SDS011;6091;51.432;6.880;2022-10-16T13:36:19;2.65;;;0.90;;
12059;SDS011;6091;51.432;6.880;2022-10-16T13:42:10;1.30;;;0.90;;
12059;SDS011;6091;51.432;6.880;2022-10-16T13:44:42;1.85;;;1.10;;
12059;SDS011;6091;51.432;6.880;2022-10-16T13:50:01;0.70;;;0.70;;
12059;SDS011;6091;51.432;6.880;2022-10-16T13:52:32;0.77;;;0.68;;
12059;SDS011;6091;51.432;6.880;2022-10-16T13:54:59;2.58;;;0.90;;
12059;SDS011;6091;51.432;6.880;2022-10-16T13:57:27;2.25;;;0.70;;
12059;SDS011;6091;51.432;6.880;2022-10-16T13:59:54;0.80;;;0.73;;
12059;SDS011;6091;51.432;6.880;2022-10-16T14:02:25;1.05;;;0.70;;
12059;SDS011;6091;51.432;6.880;2022-10-16T14:05:04;1.67;;;0.65;;
12059;SDS011;6091;51.432;6.880;2022-10-16T14:07:37;0.80;;;0.73;;
12059;SDS011;6091;51.432;6.880;2022-10-16T14:10:18;0.80;;;0.80;;
12059;SDS011;6091;51.432;6.880;2022-10-16T14:13:00;0.65;;;0.65;;
12059;SDS011;6091;51.432;6.880;2022-10-16T14:15:31;0.80;;;0.70;;
12059;SDS011;6091;51.432;6.880;2022-10-16T14:18:01;1.00;;;0.73;;
12059;SDS011;6091;51.432;6.880;2022-10-16T14:20:30;1.63;;;0.90;;
12059;SDS011;6091;51.432;6.880;2022-10-16T14:23:04;1.00;;;0.70;;
12059;SDS011;6091;51.432;6.880;2022-10-16T14:28:36;0.80;;;0.80;;
12059;SDS011;6091;51.432;6.880;2022-10-16T14:33:45;1.23;;;0.80;;
12059;SDS011;6091;51.432;6.880;2022-10-16T14:36:13;0.68;;;0.60;;
12059;SDS011;6091;51.432;6.880;2022-10-16T14:41:45;0.73;;;0.63;;
12059;SDS011;6091;51.432;6.880;2022-10-16T14:44:17;1.00;;;0.82;;
12059;SDS011;6091;51.432;6.880;2022-10-16T14:46:46;0.60;;;0.60;;
12059;SDS011;6091;51.432;6.880;2022-10-16T14:49:17;1.15;;;0.70;;
12059;SDS011;6091;51.432;6.880;2022-10-16T14:51:48;0.63;;;0.60;;
12059;SDS011;6091;51.432;6.880;2022-10-16T14:54:15;0.80;;;0.75;;
12059;SDS011;6091;51.432;6.880;2022-10-16T14:56:46;0.70;;;0.70;;
12059;SDS011;6091;51.432;6.880;2022-10-16T15:01:56;0.93;;;0.68;;
12059;SDS011;6091;51.432;6.880;2022-10-16T15:04:24;2.17;;;0.70;;
12059;SDS011;6091;51.432;6.880;2022-10-16T15:06:51;0.63;;;0.63;;
12059;SDS011;6091;51.432;6.880;2022-10-16T15:09:18;6.80;;;0.80;;
12059;SDS011;6091;51.432;6.880;2022-10-16T15:11:45;1.10;;;0.80;;
12059;SDS011;6091;51.432;6.880;2022-10-16T15:14:13;0.70;;;0.70;;
12059;SDS011;6091;51.432;6.880;2022-10-16T15:16:40;1.15;;;0.68;;
12059;SDS011;6091;51.432;6.880;2022-10-16T15:19:08;0.93;;;0.70;;
12059;SDS011;6091;51.432;6.880;2022-10-16T15:21:34;1.40;;;0.88;;
12059;SDS011;6091;51.432;6.880;2022-10-16T15:24:01;0.80;;;0.80;;
12059;SDS011;6091;51.432;6.880;2022-10-16T15:26:29;0.85;;;0.73;;
12059;SDS011;6091;51.432;6.880;2022-10-16T15:28:56;3.35;;;0.90;;
12059;SDS011;6091;51.432;6.880;2022-10-16T15:31:24;1.70;;;0.70;;
12059;SDS011;6091;51.432;6.880;2022-10-16T15:33:52;1.83;;;0.80;;
12059;SDS011;6091;51.432;6.880;2022-10-16T15:36:25;1.00;;;0.88;;
12059;SDS011;6091;51.432;6.880;2022-10-16T15:38:54;0.88;;;0.60;;
12059;SDS011;6091;51.432;6.880;2022-10-16T15:41:21;0.65;;;0.57;;
12059;SDS011;6091;51.432;6.880;2022-10-16T15:43:49;0.90;;;0.65;;
12059;SDS011;6091;51.432;6.880;2022-10-16T15:46:21;1.42;;;0.60;;
12059;SDS011;6091;51.432;6.880;2022-10-16T15:48:51;0.98;;;0.70;;
12059;SDS011;6091;51.432;6.880;2022-10-16T15:51:25;1.35;;;0.70;;
12059;SDS011;6091;51.432;6.880;2022-10-16T15:53:59;0.60;;;0.60;;
12059;SDS011;6091;51.432;6.880;2022-10-16T15:56:28;2.58;;;0.80;;
12059;SDS011;6091;51.432;6.880;2022-10-16T15:58:56;1.25;;;0.93;;
12059;SDS011;6091;51.432;6.880;2022-10-16T16:01:24;1.98;;;0.88;;
12059;SDS011;6091;51.432;6.880;2022-10-16T16:03:55;2.63;;;0.88;;
12059;SDS011;6091;51.432;6.880;2022-10-16T16:06:22;1.65;;;0.98;;
12059;SDS011;6091;51.432;6.880;2022-10-16T16:08:52;2.08;;;0.90;;
12059;SDS011;6091;51.432;6.880;2022-10-16T16:11:20;5.90;;;0.98;;
12059;SDS011;6091;51.432;6.880;2022-10-16T16:13:49;1.38;;;0.80;;
12059;SDS011;6091;51.432;6.880;2022-10-16T16:16:16;1.30;;;1.05;;
12059;SDS011;6091;51.432;6.880;2022-10-16T16:18:46;1.75;;;1.10;;
12059;SDS011;6091;51.432;6.880;2022-10-16T16:21:15;1.83;;;0.70;;
12059;SDS011;6091;51.432;6.880;2022-10-16T16:23:42;3.60;;;1.10;;
12059;SDS011;6091;51.432;6.880;2022-10-16T16:26:11;3.05;;;1.00;;
12059;SDS011;6091;51.432;6.880;2022-10-16T16:28:47;3.08;;;0.85;;
12059;SDS011;6091;51.432;6.880;2022-10-16T16:31:14;4.90;;;0.80;;
12059;SDS011;6091;51.432;6.880;2022-10-16T16:33:43;1.15;;;1.00;;
12059;SDS011;6091;51.432;6.880;2022-10-16T16:36:11;1.30;;;0.80;;
12059;SDS011;6091;51.432;6.880;2022-10-16T16:38:41;2.38;;;1.20;;
12059;SDS011;6091;51.432;6.880;2022-10-16T16:41:15;3.47;;;0.95;;
12059;SDS011;6091;51.432;6.880;2022-10-16T16:43:49;2.75;;;1.23;;
12059;SDS011;6091;51.432;6.880;2022-10-16T16:46:17;1.48;;;0.85;;
12059;SDS011;6091;51.432;6.880;2022-10-16T16:48:46;2.58;;;1.20;;
12059;SDS011;6091;51.432;6.880;2022-10-16T16:51:16;2.22;;;1.20;;
12059;SDS011;6091;51.432;6.880;2022-10-16T16:53:47;2.67;;;1.00;;
12059;SDS011;6091;51.432;6.880;2022-10-16T16:56:18;2.45;;;1.00;;
12059;SDS011;6091;51.432;6.880;2022-10-16T16:58:48;1.23;;;0.93;;
12059;SDS011;6091;51.432;6.880;2022-10-16T17:01:18;1.90;;;1.00;;
12059;SDS011;6091;51.432;6.880;2022-10-16T17:03:47;2.20;;;1.05;;
12059;SDS011;6091;51.432;6.880;2022-10-16T17:06:21;1.88;;;0.95;;
12059;SDS011;6091;51.432;6.880;2022-10-16T17:08:51;3.15;;;1.08;;
12059;SDS011;6091;51.432;6.880;2022-10-16T17:11:20;3.95;;;1.00;;
12059;SDS011;6091;51.432;6.880;2022-10-16T17:13:51;1.60;;;0.80;;
12059;SDS011;6091;51.432;6.880;2022-10-16T17:16:32;2.40;;;1.02;;
12059;SDS011;6091;51.432;6.880;2022-10-16T17:19:02;1.02;;;0.93;;
12059;SDS011;6091;51.432;6.880;2022-10-16T17:21:33;1.95;;;0.95;;
12059;SDS011;6091;51.432;6.880;2022-10-16T17:24:01;2.03;;;1.05;;
12059;SDS011;6091;51.432;6.880;2022-10-16T17:26:29;2.50;;;1.10;;
12059;SDS011;6091;51.432;6.880;2022-10-16T17:28:59;2.50;;;1.00;;
12059;SDS011;6091;51.432;6.880;2022-10-16T17:31:28;3.53;;;1.00;;
12059;SDS011;6091;51.432;6.880;2022-10-16T17:33:59;2.88;;;1.23;;